createdAt,value
2018-11-11T00:00:32.036Z,98285.00
2018-11-11T00:02:36.053Z,98297.00
2018-11-11T00:04:40.123Z,98285.00
2018-11-11T00:06:44.201Z,98290.00
2018-11-11T00:08:48.260Z,98290.00
2018-11-11T00:10:52.331Z,98275.00
2018-11-11T00:12:56.530Z,98283.00
2018-11-11T00:15:00.580Z,98291.00
2018-11-11T00:17:04.662Z,98279.00
2018-11-11T00:19:09.036Z,98274.00
2018-11-11T00:21:13.162Z,98274.00
2018-11-11T00:23:17.214Z,98267.00
2018-11-11T00:25:21.294Z,98274.00
2018-11-11T00:27:25.425Z,98269.00
2018-11-11T00:29:29.569Z,98283.00
2018-11-11T00:31:33.610Z,98285.00
2018-11-11T00:33:37.745Z,98279.00
2018-11-11T00:35:41.828Z,98263.00
2018-11-11T00:37:46.095Z,98268.00
2018-11-11T00:39:50.197Z,98269.00
2018-11-11T00:41:54.345Z,98266.00
2018-11-11T00:43:58.414Z,98262.00
2018-11-11T00:46:02.455Z,98272.00
2018-11-11T00:48:06.494Z,98266.00
2018-11-11T00:50:11.510Z,98265.00
2018-11-11T00:52:15.578Z,98266.00
2018-11-11T00:54:19.654Z,98269.00
2018-11-11T00:56:23.683Z,98273.00
2018-11-11T00:58:27.737Z,98273.00
2018-11-11T01:00:32.458Z,98280.00
2018-11-11T01:02:36.557Z,98286.00
2018-11-11T01:04:40.625Z,98280.00
2018-11-11T01:06:44.706Z,98286.00
2018-11-11T01:08:48.778Z,98292.00
2018-11-11T01:10:52.878Z,98292.00
2018-11-11T01:12:56.981Z,98293.00
2018-11-11T01:15:00.998Z,98309.00
2018-11-11T01:17:05.634Z,98311.00
2018-11-11T01:19:09.682Z,98311.00
2018-11-11T01:21:13.745Z,98310.00
2018-11-11T01:23:18.068Z,98315.00
2018-11-11T01:25:22.132Z,98313.00
2018-11-11T01:27:26.160Z,98319.00
2018-11-11T01:29:30.254Z,98307.00
2018-11-11T01:31:34.360Z,98313.00
2018-11-11T01:33:38.497Z,98318.00
2018-11-11T01:35:42.551Z,98317.00
2018-11-11T01:37:46.651Z,98317.00
2018-11-11T01:39:50.719Z,98317.00
2018-11-11T01:41:54.786Z,98315.00
2018-11-11T01:43:58.830Z,98320.00
2018-11-11T01:46:02.914Z,98313.00
2018-11-11T01:48:06.975Z,98331.00
2018-11-11T01:50:12.090Z,98331.00
2018-11-11T01:52:16.173Z,98323.00
2018-11-11T01:54:20.251Z,98314.00
2018-11-11T01:56:24.302Z,98304.00
2018-11-11T01:58:28.389Z,98292.00
2018-11-11T02:00:33.541Z,98297.00
2018-11-11T02:02:37.742Z,98304.00
2018-11-11T02:04:41.768Z,98297.00
2018-11-11T02:06:45.803Z,98298.00
2018-11-11T02:08:49.879Z,98298.00
2018-11-11T02:10:53.961Z,98304.00
2018-11-11T02:12:57.997Z,98299.00
2018-11-11T02:15:02.022Z,98306.00
2018-11-11T02:17:06.452Z,98297.00
2018-11-11T02:19:10.513Z,98305.00
2018-11-11T02:21:14.644Z,98315.00
2018-11-11T02:23:18.606Z,98310.00
2018-11-11T02:25:22.673Z,98312.00
2018-11-11T02:27:26.714Z,98305.00
2018-11-11T02:29:30.826Z,98313.00
2018-11-11T02:31:34.987Z,98314.00
2018-11-11T02:33:39.045Z,98313.00
2018-11-11T02:35:43.237Z,98300.00
2018-11-11T02:37:47.310Z,98309.00
2018-11-11T02:39:51.337Z,98307.00
2018-11-11T02:41:55.404Z,98300.00
2018-11-11T02:43:59.459Z,98298.00
2018-11-11T02:46:03.514Z,98297.00
2018-11-11T02:48:07.612Z,98296.00
2018-11-11T02:50:13.154Z,98296.00
2018-11-11T02:52:17.226Z,98304.00
2018-11-11T02:54:21.270Z,98307.00
2018-11-11T02:56:25.331Z,98305.00
2018-11-11T02:58:29.425Z,98309.00
2018-11-11T03:00:34.326Z,98295.00
2018-11-11T03:02:38.383Z,98290.00
2018-11-11T03:04:42.422Z,98309.00
2018-11-11T03:06:46.566Z,98304.00
2018-11-11T03:08:50.635Z,98298.00
2018-11-11T03:10:54.750Z,98304.00
2018-11-11T03:12:58.777Z,98296.00
2018-11-11T03:15:02.847Z,98293.00
2018-11-11T03:17:06.950Z,98306.00
2018-11-11T03:19:11.004Z,98306.00
2018-11-11T03:21:15.050Z,98313.00
2018-11-11T03:23:19.102Z,98299.00
2018-11-11T03:25:23.129Z,98316.00
2018-11-11T03:27:27.200Z,98308.00
2018-11-11T03:29:31.279Z,98313.00
2018-11-11T03:31:35.338Z,98316.00
2018-11-11T03:33:39.433Z,98308.00
2018-11-11T03:35:43.927Z,98307.00
2018-11-11T03:37:48.000Z,98294.00
2018-11-11T03:39:52.085Z,98282.00
2018-11-11T03:41:56.198Z,98288.00
2018-11-11T03:44:00.316Z,98287.00
2018-11-11T03:46:04.429Z,98292.00
2018-11-11T03:48:08.460Z,98297.00
2018-11-11T03:50:12.630Z,98285.00
2018-11-11T03:52:16.716Z,98272.00
2018-11-11T03:54:20.768Z,98279.00
2018-11-11T03:56:24.822Z,98278.00
2018-11-11T03:58:28.958Z,98269.00
2018-11-11T04:00:32.957Z,98274.00
2018-11-11T04:02:37.062Z,98268.00
2018-11-11T04:04:41.126Z,98282.00
2018-11-11T04:06:45.429Z,98284.00
2018-11-11T04:08:49.497Z,98283.00
2018-11-11T04:10:53.582Z,98287.00
2018-11-11T04:12:57.637Z,98281.00
2018-11-11T04:15:01.667Z,98296.00
2018-11-11T04:17:05.821Z,98279.00
2018-11-11T04:19:10.209Z,98281.00
2018-11-11T04:21:15.204Z,98282.00
2018-11-11T04:23:19.253Z,98282.00
2018-11-11T04:25:23.294Z,98280.00
2018-11-11T04:27:27.361Z,98266.00
2018-11-11T04:29:31.412Z,98268.00
2018-11-11T04:31:35.483Z,98268.00
2018-11-11T04:33:39.547Z,98283.00
2018-11-11T04:35:43.757Z,98274.00
2018-11-11T04:37:47.793Z,98280.00
2018-11-11T04:39:51.858Z,98272.00
2018-11-11T04:41:55.941Z,98285.00
2018-11-11T04:43:59.960Z,98289.00
2018-11-11T04:46:04.061Z,98289.00
2018-11-11T04:48:08.115Z,98287.00
2018-11-11T04:50:13.677Z,98292.00
2018-11-11T04:52:17.736Z,98294.00
2018-11-11T04:54:21.825Z,98287.00
2018-11-11T04:56:25.898Z,98303.00
2018-11-11T04:58:30.879Z,98289.00
2018-11-11T05:00:35.434Z,98291.00
2018-11-11T05:02:39.893Z,98288.00
2018-11-11T05:04:44.016Z,98286.00
2018-11-11T05:06:48.045Z,98292.00
2018-11-11T05:08:52.116Z,98293.00
2018-11-11T05:10:56.238Z,98292.00
2018-11-11T05:13:00.280Z,98296.00
2018-11-11T05:15:04.424Z,98299.00
2018-11-11T05:17:08.478Z,98315.00
2018-11-11T05:19:13.060Z,98307.00
2018-11-11T05:21:17.129Z,98313.00
2018-11-11T05:23:21.281Z,98314.00
2018-11-11T05:25:25.343Z,98320.00
2018-11-11T05:27:29.434Z,98320.00
2018-11-11T05:29:33.463Z,98323.00
2018-11-11T05:31:37.526Z,98312.00
2018-11-11T05:33:41.580Z,98319.00
2018-11-11T05:35:45.661Z,98312.00
2018-11-11T05:37:49.736Z,98317.00
2018-11-11T05:39:53.792Z,98331.00
2018-11-11T05:41:57.851Z,98324.00
2018-11-11T05:44:01.911Z,98330.00
2018-11-11T05:46:06.006Z,98325.00
2018-11-11T05:48:10.078Z,98323.00
2018-11-11T05:50:15.381Z,98328.00
2018-11-11T05:52:19.458Z,98335.00
2018-11-11T05:54:23.535Z,98331.00
2018-11-11T05:56:27.595Z,98329.00
2018-11-11T05:58:31.665Z,98336.00
2018-11-11T06:00:36.014Z,98336.00
2018-11-11T06:02:40.238Z,98335.00
2018-11-11T06:04:44.341Z,98337.00
2018-11-11T06:06:48.433Z,98332.00
2018-11-11T06:08:52.546Z,98332.00
2018-11-11T06:10:56.659Z,98324.00
2018-11-11T06:13:00.770Z,98334.00
2018-11-11T06:15:05.801Z,98341.00
2018-11-11T06:17:09.854Z,98337.00
2018-11-11T06:19:13.981Z,98344.00
2018-11-11T06:21:18.037Z,98336.00
2018-11-11T06:23:22.128Z,98342.00
2018-11-11T06:25:26.258Z,98347.00
2018-11-11T06:27:30.585Z,98348.00
2018-11-11T06:29:34.592Z,98352.00
2018-11-11T06:31:38.657Z,98354.00
2018-11-11T06:33:42.722Z,98358.00
2018-11-11T06:35:46.777Z,98363.00
2018-11-11T06:37:50.837Z,98344.00
2018-11-11T06:39:54.944Z,98350.00
2018-11-11T06:41:59.017Z,98348.00
2018-11-11T06:44:03.262Z,98342.00
2018-11-11T06:46:07.326Z,98343.00
2018-11-11T06:48:11.408Z,98357.00
2018-11-11T06:50:15.903Z,98350.00
2018-11-11T06:52:20.215Z,98336.00
2018-11-11T06:54:24.288Z,98338.00
2018-11-11T06:56:28.566Z,98332.00
2018-11-11T06:58:32.631Z,98330.00
2018-11-11T07:00:36.787Z,98331.00
2018-11-11T07:02:57.771Z,98336.00
2018-11-11T07:05:02.699Z,98344.00
2018-11-11T07:07:06.829Z,98343.00
2018-11-11T07:09:10.897Z,98342.00
2018-11-11T07:11:15.311Z,98339.00
2018-11-11T07:13:19.386Z,98337.00
2018-11-11T07:15:23.654Z,98349.00
2018-11-11T07:17:27.736Z,98342.00
2018-11-11T07:19:31.791Z,98357.00
2018-11-11T07:21:35.986Z,98370.00
2018-11-11T07:23:40.089Z,98375.00
2018-11-11T07:25:44.167Z,98369.00
2018-11-11T07:27:48.209Z,98377.00
2018-11-11T07:29:52.267Z,98377.00
2018-11-11T07:31:56.302Z,98384.00
2018-11-11T07:34:00.384Z,98391.00
2018-11-11T07:36:04.528Z,98389.00
2018-11-11T07:38:08.527Z,98397.00
2018-11-11T07:40:14.257Z,98409.00
2018-11-11T07:42:18.354Z,98412.00
2018-11-11T07:44:22.668Z,98407.00
2018-11-11T07:46:26.739Z,98394.00
2018-11-11T07:48:30.790Z,98405.00
2018-11-11T07:50:35.005Z,98410.00
2018-11-11T07:52:39.098Z,98417.00
2018-11-11T07:54:43.240Z,98411.00
2018-11-11T07:56:47.324Z,98405.00
2018-11-11T07:58:51.403Z,98415.00
2018-11-11T08:00:55.470Z,98417.00
2018-11-11T08:02:59.521Z,98416.00
2018-11-11T08:05:03.690Z,98426.00
2018-11-11T08:07:07.721Z,98438.00
2018-11-11T08:09:11.836Z,98437.00
2018-11-11T08:11:33.043Z,98427.00
2018-11-11T08:13:37.175Z,98445.00
2018-11-11T08:15:41.275Z,98450.00
2018-11-11T08:17:45.407Z,98440.00
2018-11-11T08:19:49.468Z,98438.00
2018-11-11T08:21:53.606Z,98439.00
2018-11-11T08:23:57.637Z,98449.00
2018-11-11T08:26:01.726Z,98450.00
2018-11-11T08:28:05.806Z,98455.00
2018-11-11T08:30:10.366Z,98462.00
2018-11-11T08:32:14.501Z,98463.00
2018-11-11T08:34:18.590Z,98462.00
2018-11-11T08:36:23.103Z,98460.00
2018-11-11T08:38:27.198Z,98457.00
2018-11-11T08:40:31.301Z,98448.00
2018-11-11T08:42:35.356Z,98458.00
2018-11-11T08:44:39.455Z,98462.00
2018-11-11T08:46:44.671Z,98465.00
2018-11-11T08:48:48.769Z,98468.00
2018-11-11T08:50:52.922Z,98467.00
2018-11-11T08:52:56.973Z,98477.00
2018-11-11T08:55:01.039Z,98477.00
2018-11-11T08:57:05.390Z,98470.00
2018-11-11T08:59:09.460Z,98470.00
2018-11-11T09:01:13.637Z,98476.00
2018-11-11T09:03:17.684Z,98469.00
2018-11-11T09:05:21.740Z,98471.00
2018-11-11T09:07:25.809Z,98484.00
2018-11-11T09:09:29.983Z,98483.00
2018-11-11T09:11:34.092Z,98488.00
2018-11-11T09:13:38.171Z,98497.00
2018-11-11T09:15:44.439Z,98500.00
2018-11-11T09:17:48.506Z,98486.00
2018-11-11T09:19:52.617Z,98488.00
2018-11-11T09:21:56.730Z,98489.00
2018-11-11T09:24:00.811Z,98492.00
2018-11-11T09:26:05.081Z,98501.00
2018-11-11T09:28:09.125Z,98505.00
2018-11-11T09:30:14.543Z,98507.00
2018-11-11T09:32:18.621Z,98501.00
2018-11-11T09:34:22.681Z,98513.00
2018-11-11T09:36:26.778Z,98505.00
2018-11-11T09:38:30.837Z,98503.00
2018-11-11T09:40:35.058Z,98509.00
2018-11-11T09:42:39.246Z,98510.00
2018-11-11T09:44:43.233Z,98508.00
2018-11-11T09:46:48.117Z,98494.00
2018-11-11T09:48:52.183Z,98497.00
2018-11-11T09:50:56.215Z,98506.00
2018-11-11T09:53:00.292Z,98508.00
2018-11-11T09:55:05.418Z,98490.00
2018-11-11T09:57:09.471Z,98491.00
2018-11-11T09:59:13.556Z,98493.00
2018-11-11T10:01:17.768Z,98496.00
2018-11-11T10:05:31.241Z,98495.00
2018-11-11T10:07:41.437Z,98505.00
2018-11-11T10:09:51.081Z,98510.00
2018-11-11T10:12:00.449Z,98509.00
2018-11-11T10:14:20.091Z,98513.00
2018-11-11T10:16:29.970Z,98517.00
2018-11-11T10:18:55.399Z,98513.00
2018-11-11T10:22:05.647Z,98500.00
2018-11-11T10:24:20.831Z,98503.00
2018-11-11T10:26:45.630Z,98508.00
2018-11-11T10:29:06.321Z,98501.00
2018-11-11T10:31:15.202Z,98487.00
2018-11-11T10:33:27.708Z,98496.00
2018-11-11T10:35:37.729Z,98489.00
2018-11-11T10:37:47.842Z,98499.00
2018-11-11T10:39:55.963Z,98502.00
2018-11-11T10:42:05.424Z,98498.00
2018-11-11T10:44:19.813Z,98498.00
2018-11-11T10:46:29.986Z,98505.00
2018-11-11T10:48:40.007Z,98522.00
2018-11-11T10:50:48.338Z,98526.00
2018-11-11T10:52:52.442Z,98524.00
2018-11-11T10:54:56.597Z,98528.00
2018-11-11T10:57:00.636Z,98529.00
2018-11-11T10:59:04.694Z,98544.00
2018-11-11T11:01:12.869Z,98545.00
2018-11-11T11:03:22.254Z,98530.00
2018-11-11T11:05:26.317Z,98544.00
2018-11-11T11:07:30.417Z,98543.00
2018-11-11T11:09:34.434Z,98543.00
2018-11-11T11:11:38.477Z,98555.00
2018-11-11T11:13:42.601Z,98558.00
2018-11-11T11:15:46.610Z,98561.00
2018-11-11T11:17:50.627Z,98563.00
2018-11-11T11:19:54.706Z,98563.00
2018-11-11T11:21:58.850Z,98561.00
2018-11-11T11:24:02.999Z,98579.00
2018-11-11T11:26:08.169Z,98574.00
2018-11-11T11:28:12.218Z,98583.00
2018-11-11T11:30:16.302Z,98588.00
2018-11-11T11:32:20.318Z,98577.00
2018-11-11T11:34:24.497Z,98582.00
2018-11-11T11:36:28.796Z,98587.00
2018-11-11T11:38:32.831Z,98583.00
2018-11-11T11:40:36.914Z,98602.00
2018-11-11T11:42:41.029Z,98598.00
2018-11-11T11:44:45.101Z,98601.00
2018-11-11T11:46:49.140Z,98602.00
2018-11-11T11:48:53.227Z,98615.00
2018-11-11T11:50:57.282Z,98596.00
2018-11-11T11:53:01.675Z,98608.00
2018-11-11T11:55:06.366Z,98611.00
2018-11-11T11:57:10.375Z,98601.00
2018-11-11T11:59:14.460Z,98600.00
2018-11-11T12:01:18.647Z,98591.00
2018-11-11T12:03:22.755Z,98602.00
2018-11-11T12:05:26.887Z,98602.00
2018-11-11T12:07:31.007Z,98608.00
2018-11-11T12:09:35.082Z,98608.00
2018-11-11T12:11:39.177Z,98601.00
2018-11-11T12:13:43.225Z,98600.00
2018-11-11T12:15:47.459Z,98602.00
2018-11-11T12:17:51.498Z,98592.00
2018-11-11T12:19:55.563Z,98601.00
2018-11-11T12:21:59.648Z,98591.00
2018-11-11T12:24:03.824Z,98586.00
2018-11-11T12:26:07.882Z,98588.00
2018-11-11T12:28:11.940Z,98594.00
2018-11-11T12:30:16.068Z,98589.00
2018-11-11T12:32:20.066Z,98587.00
2018-11-11T12:34:24.324Z,98589.00
2018-11-11T12:36:28.409Z,98591.00
2018-11-11T12:38:32.503Z,98595.00
2018-11-11T12:40:37.325Z,98600.00
2018-11-11T12:42:42.529Z,98601.00
2018-11-11T12:44:46.641Z,98605.00
2018-11-11T12:46:50.709Z,98613.00
2018-11-11T12:48:54.734Z,98609.00
2018-11-11T12:50:58.941Z,98608.00
2018-11-11T12:53:03.054Z,98607.00
2018-11-11T12:55:07.405Z,98603.00
2018-11-11T12:57:11.426Z,98606.00
2018-11-11T12:59:15.544Z,98617.00
2018-11-11T13:01:19.634Z,98626.00
2018-11-11T13:03:23.692Z,98630.00
2018-11-11T13:05:27.738Z,98635.00
2018-11-11T13:07:31.818Z,98641.00
2018-11-11T13:09:35.842Z,98645.00
2018-11-11T13:11:40.022Z,98634.00
2018-11-11T13:13:44.021Z,98630.00
2018-11-11T13:15:48.125Z,98635.00
2018-11-11T13:17:52.198Z,98634.00
2018-11-11T13:19:57.290Z,98635.00
2018-11-11T13:22:01.464Z,98637.00
2018-11-11T13:24:05.782Z,98635.00
2018-11-11T13:26:10.970Z,98638.00
2018-11-11T13:28:15.066Z,98642.00
2018-11-11T13:30:19.201Z,98642.00
2018-11-11T13:32:23.294Z,98633.00
2018-11-11T13:34:27.369Z,98654.00
2018-11-11T13:36:31.430Z,98647.00
2018-11-11T13:38:35.638Z,98641.00
2018-11-11T13:40:39.633Z,98652.00
2018-11-11T13:42:43.705Z,98651.00
2018-11-11T13:44:47.776Z,98650.00
2018-11-11T13:46:52.907Z,98645.00
2018-11-11T13:48:57.008Z,98656.00
2018-11-11T13:51:01.078Z,98653.00
2018-11-11T13:53:05.206Z,98655.00
2018-11-11T13:55:10.365Z,98655.00
2018-11-11T13:57:15.286Z,98649.00
2018-11-11T13:59:19.363Z,98654.00
2018-11-11T14:01:23.445Z,98662.00
2018-11-11T14:03:27.505Z,98669.00
2018-11-11T14:05:31.569Z,98660.00
2018-11-11T14:07:35.884Z,98675.00
2018-11-11T14:09:39.965Z,98673.00
2018-11-11T14:11:44.047Z,98681.00
2018-11-11T14:13:48.154Z,98689.00
2018-11-11T14:15:52.270Z,98688.00
2018-11-11T14:17:56.900Z,98690.00
2018-11-11T14:20:00.871Z,98693.00
2018-11-11T14:22:05.045Z,98688.00
2018-11-11T14:24:09.186Z,98685.00
2018-11-11T14:26:13.360Z,98672.00
2018-11-11T14:28:17.335Z,98666.00
2018-11-11T14:30:22.715Z,98663.00
2018-11-11T14:32:26.960Z,98660.00
2018-11-11T14:34:31.009Z,98658.00
2018-11-11T14:36:35.810Z,98662.00
2018-11-11T14:38:40.035Z,98657.00
2018-11-11T14:40:44.078Z,98660.00
2018-11-11T14:42:48.183Z,98670.00
2018-11-11T14:44:52.218Z,98674.00
2018-11-11T14:46:56.335Z,98668.00
2018-11-11T14:49:00.502Z,98675.00
2018-11-11T14:51:04.582Z,98672.00
2018-11-11T14:53:08.689Z,98668.00
2018-11-11T14:55:21.911Z,98663.00
2018-11-11T14:57:25.933Z,98662.00
2018-11-11T14:59:30.025Z,98673.00
2018-11-11T15:01:34.148Z,98671.00
2018-11-11T15:03:38.160Z,98676.00
2018-11-11T15:05:42.266Z,98682.00
2018-11-11T15:07:46.369Z,98698.00
2018-11-11T15:09:50.434Z,98696.00
2018-11-11T15:11:54.544Z,98690.00
2018-11-11T15:13:58.638Z,98688.00
2018-11-11T15:16:02.786Z,98684.00
2018-11-11T15:18:07.294Z,98688.00
2018-11-11T15:20:12.793Z,98687.00
2018-11-11T15:22:16.666Z,98688.00
2018-11-11T15:24:21.874Z,98682.00
2018-11-11T15:26:25.933Z,98693.00
2018-11-11T15:28:30.010Z,98695.00
2018-11-11T15:30:35.452Z,98695.00
2018-11-11T15:32:39.471Z,98683.00
2018-11-11T15:34:43.553Z,98697.00
2018-11-11T15:36:47.727Z,98700.00
2018-11-11T15:38:51.796Z,98700.00
2018-11-11T15:40:56.024Z,98697.00
2018-11-11T15:43:00.250Z,98697.00
2018-11-11T15:45:04.949Z,98697.00
2018-11-11T15:47:09.047Z,98706.00
2018-11-11T15:49:13.149Z,98714.00
2018-11-11T15:51:17.226Z,98703.00
2018-11-11T15:53:21.714Z,98717.00
2018-11-11T15:55:27.254Z,98724.00
2018-11-11T15:57:31.359Z,98727.00
2018-11-11T15:59:35.602Z,98723.00
2018-11-11T16:01:39.722Z,98724.00
2018-11-11T16:03:44.029Z,98733.00
2018-11-11T16:05:48.248Z,98731.00
2018-11-11T16:07:53.208Z,98732.00
2018-11-11T16:09:57.227Z,98739.00
2018-11-11T16:12:01.499Z,98741.00
2018-11-11T16:14:06.930Z,98728.00
2018-11-11T16:16:10.950Z,98718.00
2018-11-11T16:18:15.355Z,98719.00
2018-11-11T16:20:22.031Z,98738.00
2018-11-11T16:22:26.368Z,98732.00
2018-11-11T16:24:30.430Z,98733.00
2018-11-11T16:26:34.598Z,98727.00
2018-11-11T16:28:38.659Z,98718.00
2018-11-11T16:30:43.098Z,98740.00
2018-11-11T16:32:47.639Z,98734.00
2018-11-11T16:34:51.974Z,98727.00
2018-11-11T16:36:56.059Z,98740.00
2018-11-11T16:39:00.138Z,98725.00
2018-11-11T16:41:04.338Z,98734.00
2018-11-11T16:43:08.338Z,98731.00
2018-11-11T16:45:15.127Z,98741.00
2018-11-11T16:47:19.191Z,98736.00
2018-11-11T16:49:23.221Z,98733.00
2018-11-11T16:51:27.317Z,98742.00
2018-11-11T16:53:31.465Z,98728.00
2018-11-11T16:55:36.468Z,98730.00
2018-11-11T16:57:40.734Z,98752.00
2018-11-11T16:59:44.803Z,98744.00
2018-11-11T17:01:48.884Z,98739.00
2018-11-11T17:03:52.965Z,98743.00
2018-11-11T17:05:57.030Z,98730.00
2018-11-11T17:08:01.152Z,98733.00
2018-11-11T17:10:07.130Z,98731.00
2018-11-11T17:12:11.278Z,98744.00
2018-11-11T17:14:15.428Z,98743.00
2018-11-11T17:16:19.442Z,98742.00
2018-11-11T17:18:23.514Z,98743.00
2018-11-11T17:20:27.897Z,98743.00
2018-11-11T17:22:31.945Z,98736.00
2018-11-11T17:24:36.048Z,98746.00
2018-11-11T17:26:40.248Z,98732.00
2018-11-11T17:28:44.340Z,98744.00
2018-11-11T17:30:48.407Z,98752.00
2018-11-11T17:32:52.853Z,98753.00
2018-11-11T17:34:56.884Z,98753.00
2018-11-11T17:37:01.001Z,98750.00
2018-11-11T17:39:09.658Z,98752.00
2018-11-11T17:41:13.701Z,98756.00
2018-11-11T17:43:17.805Z,98756.00
2018-11-11T17:45:22.093Z,98766.00
2018-11-11T17:47:27.115Z,98769.00
2018-11-11T17:49:31.219Z,98764.00
2018-11-11T17:51:35.314Z,98776.00
2018-11-11T17:53:39.365Z,98786.00
2018-11-11T17:55:43.557Z,98797.00
2018-11-11T17:57:47.538Z,98800.00
2018-11-11T17:59:51.606Z,98807.00
2018-11-11T18:01:56.501Z,98801.00
2018-11-11T18:04:00.560Z,98803.00
2018-11-11T18:06:04.603Z,98801.00
2018-11-11T18:08:08.777Z,98807.00
2018-11-11T18:10:14.352Z,98811.00
2018-11-11T18:12:18.408Z,98814.00
2018-11-11T18:14:22.532Z,98821.00
2018-11-11T18:16:27.373Z,98818.00
2018-11-11T18:18:31.443Z,98819.00
2018-11-11T18:20:35.572Z,98816.00
2018-11-11T18:22:39.599Z,98814.00
2018-11-11T18:24:43.716Z,98808.00
2018-11-11T18:26:47.864Z,98799.00
2018-11-11T18:28:51.917Z,98810.00
2018-11-11T18:30:56.053Z,98801.00
2018-11-11T18:33:00.162Z,98800.00
2018-11-11T18:35:04.848Z,98812.00
2018-11-11T18:37:08.926Z,98804.00
2018-11-11T18:39:13.327Z,98813.00
2018-11-11T18:41:17.421Z,98827.00
2018-11-11T18:43:21.478Z,98818.00
2018-11-11T18:45:26.806Z,98819.00
2018-11-11T18:47:30.862Z,98826.00
2018-11-11T18:49:34.934Z,98826.00
2018-11-11T18:51:38.988Z,98827.00
2018-11-11T18:53:43.693Z,98832.00
2018-11-11T18:55:47.794Z,98824.00
2018-11-11T18:57:52.014Z,98826.00
2018-11-11T18:59:56.030Z,98823.00
2018-11-11T19:02:00.167Z,98822.00
2018-11-11T19:04:04.199Z,98812.00
2018-11-11T19:06:08.276Z,98815.00
2018-11-11T19:08:12.435Z,98826.00
2018-11-11T19:10:18.078Z,98849.00
2018-11-11T19:12:22.058Z,98856.00
2018-11-11T19:14:26.130Z,98879.00
2018-11-11T19:16:30.176Z,98882.00
2018-11-11T19:18:34.313Z,98886.00
2018-11-11T19:20:38.402Z,98887.00
2018-11-11T19:22:42.510Z,98893.00
2018-11-11T19:24:47.826Z,98899.00
2018-11-11T19:26:51.810Z,98905.00
2018-11-11T19:28:56.065Z,98910.00
2018-11-11T19:31:00.118Z,98904.00
2018-11-11T19:33:04.238Z,98901.00
2018-11-11T19:35:09.773Z,98908.00
2018-11-11T19:37:13.817Z,98904.00
2018-11-11T19:39:17.949Z,98905.00
2018-11-11T19:41:22.158Z,98909.00
2018-11-11T19:43:26.166Z,98917.00
2018-11-11T19:45:30.902Z,98925.00
2018-11-11T19:47:35.007Z,98930.00
2018-11-11T19:49:39.062Z,98918.00
2018-11-11T19:51:43.182Z,98912.00
2018-11-11T19:53:47.156Z,98917.00
2018-11-11T19:55:51.216Z,98916.00
2018-11-11T19:57:55.350Z,98927.00
2018-11-11T19:59:59.402Z,98943.00
2018-11-11T20:02:03.433Z,98947.00
2018-11-11T20:04:07.997Z,98947.00
2018-11-11T20:06:12.046Z,98956.00
2018-11-11T20:08:16.111Z,98962.00
2018-11-11T20:10:20.907Z,98948.00
2018-11-11T20:12:24.977Z,98938.00
2018-11-11T20:14:29.358Z,98956.00
2018-11-11T20:16:33.474Z,98957.00
2018-11-11T20:18:37.543Z,98952.00
2018-11-11T20:20:41.724Z,98948.00
2018-11-11T20:22:45.797Z,98945.00
2018-11-11T20:24:49.847Z,98949.00
2018-11-11T20:26:53.955Z,98951.00
2018-11-11T20:28:58.092Z,98956.00
2018-11-11T20:31:02.294Z,98967.00
2018-11-11T20:33:06.993Z,98952.00
2018-11-11T20:35:12.622Z,98963.00
2018-11-11T20:37:16.823Z,98964.00
2018-11-11T20:39:20.826Z,98975.00
2018-11-11T20:41:24.876Z,98970.00
2018-11-11T20:43:30.235Z,98949.00
2018-11-11T20:45:34.771Z,98950.00
2018-11-11T20:47:39.418Z,98963.00
2018-11-11T20:49:43.512Z,98964.00
2018-11-11T20:51:47.542Z,98969.00
2018-11-11T20:53:51.561Z,98984.00
2018-11-11T20:55:55.644Z,98995.00
2018-11-11T20:57:59.859Z,99004.00
2018-11-11T21:00:04.164Z,98997.00
2018-11-11T21:02:08.234Z,99011.00
2018-11-11T21:04:12.268Z,98998.00
2018-11-11T21:06:16.341Z,98989.00
2018-11-11T21:08:20.359Z,98994.00
2018-11-11T21:10:25.724Z,99007.00
2018-11-11T21:12:30.370Z,99008.00
2018-11-11T21:14:34.396Z,99014.00
2018-11-11T21:16:38.492Z,99016.00
2018-11-11T21:18:42.592Z,99012.00
2018-11-11T21:20:46.660Z,99002.00
2018-11-11T21:22:50.717Z,99005.00
2018-11-11T21:24:54.842Z,98999.00
2018-11-11T21:26:58.955Z,98990.00
2018-11-11T21:29:02.988Z,98989.00
2018-11-11T21:31:07.067Z,98994.00
2018-11-11T21:33:11.129Z,99005.00
2018-11-11T21:35:15.188Z,98991.00
2018-11-11T21:37:19.243Z,98996.00
2018-11-11T21:39:23.287Z,99000.00
2018-11-11T21:41:27.359Z,99002.00
2018-11-11T21:43:31.418Z,99002.00
2018-11-11T21:45:35.501Z,99006.00
2018-11-11T21:47:39.520Z,99003.00
2018-11-11T21:49:43.708Z,99008.00
2018-11-11T21:51:47.758Z,98996.00
2018-11-11T21:53:51.786Z,99004.00
2018-11-11T21:55:56.123Z,99005.00
2018-11-11T21:58:00.182Z,99018.00
2018-11-11T22:00:04.582Z,99013.00
2018-11-11T22:02:08.682Z,99014.00
2018-11-11T22:04:12.722Z,99011.00
2018-11-11T22:06:16.770Z,99017.00
2018-11-11T22:08:20.978Z,99003.00
2018-11-11T22:10:25.046Z,99002.00
2018-11-11T22:12:29.078Z,99020.00
2018-11-11T22:14:33.128Z,99028.00
2018-11-11T22:16:37.206Z,99039.00
2018-11-11T22:18:41.287Z,99040.00
2018-11-11T22:20:45.358Z,99037.00
2018-11-11T22:22:49.378Z,99025.00
2018-11-11T22:24:53.436Z,99040.00
2018-11-11T22:26:57.469Z,99042.00
2018-11-11T22:29:01.490Z,99070.00
2018-11-11T22:31:05.554Z,99068.00
2018-11-11T22:33:10.757Z,99066.00
2018-11-11T22:35:14.822Z,99067.00
2018-11-11T22:37:18.918Z,99074.00
2018-11-11T22:39:22.966Z,99073.00
2018-11-11T22:41:26.996Z,99071.00
2018-11-11T22:43:31.147Z,99063.00
2018-11-11T22:45:35.214Z,99072.00
2018-11-11T22:47:39.299Z,99077.00
2018-11-11T22:49:43.319Z,99073.00
2018-11-11T22:51:47.363Z,99083.00
2018-11-11T22:53:51.458Z,99088.00
2018-11-11T22:55:55.586Z,99098.00
2018-11-11T22:57:59.628Z,99102.00
2018-11-11T23:00:04.753Z,99100.00
2018-11-11T23:02:08.785Z,99091.00
2018-11-11T23:04:12.794Z,99092.00
2018-11-11T23:06:16.993Z,99095.00
2018-11-11T23:08:21.030Z,99100.00
2018-11-11T23:10:25.093Z,99098.00
2018-11-11T23:12:29.207Z,99078.00
2018-11-11T23:14:33.247Z,99083.00
2018-11-11T23:16:37.345Z,99093.00
2018-11-11T23:18:41.402Z,99098.00
2018-11-11T23:20:47.894Z,99096.00
2018-11-11T23:22:52.594Z,99092.00
2018-11-11T23:24:57.846Z,99086.00
2018-11-11T23:27:01.888Z,99098.00
2018-11-11T23:29:06.276Z,99089.00
2018-11-11T23:31:10.334Z,99082.00
2018-11-11T23:33:15.082Z,99075.00
2018-11-11T23:35:19.197Z,99081.00
2018-11-11T23:37:23.217Z,99094.00
2018-11-11T23:39:27.241Z,99088.00
2018-11-11T23:41:31.279Z,99092.00
2018-11-11T23:43:35.370Z,99090.00
2018-11-11T23:45:39.417Z,99096.00
2018-11-11T23:47:43.485Z,99096.00
2018-11-11T23:49:47.515Z,99102.00
2018-11-11T23:51:52.681Z,99098.00
2018-11-11T23:53:56.746Z,99088.00
2018-11-11T23:56:00.844Z,99090.00
2018-11-11T23:58:05.094Z,99085.00
